Time;durP1;ratioP1;P1;durP2;ratioP2;P2;SDS_P1;SDS_P2;PMS_P1;PMS_P2;Temp;Humidity;BMP_temperature;BMP_pressure;BME280_temperature;BME280_humidity;BME280_pressure;Samples;Min_cycle;Max_cycle;Signal;HPM_P1;HPM_P2
2022/06/02 00:00:47;;;;;;;12.00;9.53;;;7.80;99.90;7.00;100104;;;;594543;239;24088;-76
2022/06/02 00:03:24;;;;;;;17.67;14.45;;;7.80;99.90;7.00;100099;;;;589573;237;46054;-78
2022/06/02 00:06:10;;;;;;;13.00;10.17;;;7.70;99.90;7.00;100099;;;;595484;241;24127;-77
2022/06/02 00:09:01;;;;;;;12.37;9.97;;;7.80;99.90;7.00;100101;;;;594823;241;24289;-76
2022/06/02 00:11:55;;;;;;;11.37;9.17;;;7.80;99.90;7.00;100102;;;;593135;237;24110;-76
2022/06/02 00:15:03;;;;;;;12.17;8.53;;;7.80;99.90;7.00;100097;;;;596004;238;24150;-78
2022/06/02 00:17:40;;;;;;;10.10;8.77;;;7.80;99.90;7.00;100103;;;;596880;241;24065;-77
2022/06/02 00:20:35;;;;;;;14.63;9.37;;;7.80;99.90;7.00;100105;;;;595221;241;24070;-77
2022/06/02 00:23:30;;;;;;;14.83;9.87;;;7.80;99.90;7.00;100117;;;;592777;241;24071;-78
2022/06/02 00:26:25;;;;;;;15.13;9.87;;;7.80;99.90;7.00;100109;;;;595583;241;24043;-77
2022/06/02 00:29:26;;;;;;;12.10;9.60;;;7.70;99.90;6.90;100110;;;;595068;241;24109;-77
2022/06/02 00:31:59;;;;;;;12.17;9.77;;;7.70;99.90;6.90;100114;;;;594507;241;24115;-76
2022/06/02 00:34:37;;;;;;;16.90;10.07;;;7.70;99.90;6.80;100108;;;;593887;241;24051;-77
2022/06/02 00:37:26;;;;;;;10.93;8.93;;;7.60;99.90;6.80;100119;;;;590737;237;24074;-76
2022/06/02 00:39:54;;;;;;;15.87;9.47;;;7.40;99.90;6.80;100113;;;;594497;241;24121;-78
2022/06/02 00:42:24;;;;;;;15.60;10.53;;;7.60;99.90;6.70;100115;;;;594623;241;24086;-76
2022/06/02 00:45:00;;;;;;;15.07;10.70;;;7.50;99.90;6.70;100109;;;;594541;241;25142;-76
2022/06/02 00:47:52;;;;;;;13.90;10.27;;;7.50;99.90;6.70;100109;;;;593864;241;24101;-77
2022/06/02 00:50:23;;;;;;;11.83;10.30;;;7.40;99.90;6.60;100111;;;;594321;241;24094;-77
2022/06/02 00:53:00;;;;;;;16.83;10.90;;;7.40;99.90;6.60;100119;;;;593740;237;24132;-76
2022/06/02 00:58:47;;;;;;;11.80;9.47;;;7.30;99.90;6.40;100111;;;;578502;241;24054;-77
2022/06/02 01:01:18;;;;;;;13.77;10.40;;;7.20;99.90;6.40;100109;;;;594899;241;24124;-78
2022/06/02 01:03:47;;;;;;;14.23;10.33;;;7.20;99.90;6.30;100109;;;;593576;241;24084;-76
2022/06/02 01:06:23;;;;;;;11.80;8.93;;;7.20;99.90;6.40;100106;;;;594002;241;24111;-77
2022/06/02 01:09:06;;;;;;;12.40;9.50;;;7.10;99.90;6.30;100112;;;;593827;241;24090;-76
2022/06/02 01:12:01;;;;;;;10.90;8.57;;;7.20;99.90;6.30;100121;;;;594652;241;24188;-77
2022/06/02 01:15:15;;;;;;;11.47;8.87;;;7.10;99.90;6.30;100114;;;;592487;241;24173;-77
2022/06/02 01:18:15;;;;;;;9.07;8.07;;;7.10;99.90;6.30;100108;;;;595630;241;24112;-77
2022/06/02 01:21:29;;;;;;;9.13;7.63;;;7.10;99.90;6.30;100105;;;;586424;241;24135;-76
2022/06/02 01:24:21;;;;;;;14.10;8.77;;;7.10;99.90;6.30;100103;;;;591787;241;24135;-77
2022/06/02 01:27:09;;;;;;;10.47;7.23;;;7.10;99.90;6.30;100105;;;;595656;241;24113;-76
2022/06/02 01:29:51;;;;;;;14.17;8.00;;;7.10;99.90;6.20;100104;;;;594581;241;24069;-76
2022/06/02 01:32:23;;;;;;;8.63;7.13;;;7.10;99.90;6.30;100118;;;;595556;241;24073;-77
2022/06/02 01:35:20;;;;;;;11.23;7.90;;;7.10;99.90;6.30;100114;;;;595122;241;24185;-77
2022/06/02 01:38:15;;;;;;;8.93;6.77;;;7.10;99.90;6.50;100115;;;;596104;241;24065;-77
2022/06/02 01:41:10;;;;;;;8.80;6.83;;;7.20;99.90;6.60;100124;;;;596010;241;24069;-77
2022/06/02 01:43:43;;;;;;;7.33;5.97;;;7.40;99.90;6.80;100125;;;;594233;238;24068;-76
2022/06/02 01:46:31;;;;;;;7.47;6.10;;;7.50;99.90;6.90;100128;;;;590666;241;24079;-77
2022/06/02 01:49:05;;;;;;;7.43;6.47;;;7.60;99.90;6.90;100129;;;;595000;241;24112;-77
2022/06/02 01:51:54;;;;;;;9.40;6.83;;;7.70;99.90;7.00;100128;;;;593835;241;24113;-77
2022/06/02 01:54:25;;;;;;;8.77;6.10;;;7.70;99.90;7.00;100129;;;;595632;237;24024;-77
2022/06/02 01:57:16;;;;;;;8.10;6.63;;;7.80;99.90;7.00;100131;;;;595389;241;24116;-77
2022/06/02 01:59:50;;;;;;;7.40;6.70;;;7.80;99.90;7.00;100129;;;;594214;241;24092;-78
2022/06/02 02:02:26;;;;;;;7.83;7.10;;;7.80;99.90;7.10;100128;;;;595479;241;24106;-76
2022/06/02 02:05:16;;;;;;;7.57;5.97;;;7.80;99.90;7.10;100126;;;;595721;241;24076;-77
2022/06/02 02:07:48;;;;;;;7.17;6.40;;;7.90;99.90;7.00;100128;;;;596018;241;24063;-77
2022/06/02 02:10:28;;;;;;;7.20;6.30;;;7.80;99.90;7.00;100134;;;;594769;237;24074;-77
2022/06/02 02:12:58;;;;;;;7.60;6.53;;;7.80;99.90;7.00;100131;;;;595659;241;24120;-77
2022/06/02 02:15:26;;;;;;;7.07;5.33;;;7.80;99.90;7.00;100131;;;;594130;237;24125;-79
2022/06/02 02:18:16;;;;;;;7.47;5.80;;;7.80;99.90;7.00;100130;;;;594357;237;24077;-80
2022/06/02 02:21:23;;;;;;;6.30;5.67;;;7.80;99.90;7.00;100127;;;;595318;241;24075;-76
2022/06/02 02:24:00;;;;;;;9.10;6.13;;;7.70;99.90;6.90;100130;;;;583233;243;24099;-77
2022/06/02 02:26:36;;;;;;;6.27;5.47;;;7.70;99.90;6.90;100128;;;;585226;245;24089;-76
2022/06/02 02:29:23;;;;;;;5.37;4.90;;;7.70;99.90;6.90;100123;;;;592668;241;24078;-76
2022/06/02 02:32:21;;;;;;;8.90;5.00;;;7.70;99.90;6.90;100127;;;;595620;241;24069;-77
2022/06/02 02:34:55;;;;;;;5.13;4.73;;;7.70;99.90;6.80;100129;;;;595363;241;24116;-77
2022/06/02 02:37:34;;;;;;;5.20;4.63;;;7.60;99.90;6.80;100130;;;;595345;241;24084;-76
2022/06/02 02:40:31;;;;;;;4.40;4.00;;;7.60;99.90;6.80;100135;;;;595094;237;24062;-76
2022/06/02 02:43:00;;;;;;;5.43;4.07;;;7.60;99.90;6.90;100137;;;;588639;241;24097;-76
2022/06/02 02:45:55;;;;;;;4.37;3.97;;;7.60;99.90;6.90;100137;;;;594390;241;24102;-76
2022/06/02 02:48:46;;;;;;;3.93;3.53;;;7.70;99.90;6.90;100141;;;;595236;241;24054;-77
2022/06/02 02:51:30;;;;;;;4.27;3.87;;;7.70;99.90;7.00;100145;;;;594784;237;24120;-76
2022/06/02 02:54:00;;;;;;;4.40;3.97;;;7.70;99.90;7.10;100137;;;;594709;237;24101;-76
2022/06/02 02:56:47;;;;;;;4.00;3.60;;;8.00;99.90;7.30;100145;;;;592936;241;24062;-77
2022/06/02 02:59:26;;;;;;;6.82;6.22;;;8.00;99.90;7.40;100146;;;;590009;241;35126;-77
2022/06/02 03:02:23;;;;;;;4.63;4.20;;;8.10;99.90;7.60;100140;;;;594526;241;24065;-76
2022/06/02 03:05:36;;;;;;;4.50;4.10;;;8.30;99.90;7.80;100144;;;;585131;245;24101;-76
2022/06/02 03:08:04;;;;;;;4.70;4.00;;;8.50;99.90;8.00;100145;;;;594645;241;24096;-76
2022/06/02 03:10:38;;;;;;;5.07;3.77;;;8.70;99.90;8.10;100144;;;;589749;241;24070;-77
2022/06/02 03:13:29;;;;;;;3.60;3.30;;;8.80;99.90;8.20;100134;;;;594777;241;24070;-77
2022/06/02 03:15:59;;;;;;;6.07;4.00;;;9.00;99.90;8.30;100145;;;;589378;241;24114;-78
2022/06/02 03:18:45;;;;;;;7.03;4.27;;;9.10;99.90;8.40;100147;;;;594815;241;24081;-77
2022/06/02 03:21:36;;;;;;;4.23;3.80;;;9.20;99.90;8.60;100147;;;;595077;241;24085;-77
2022/06/02 03:24:29;;;;;;;4.23;3.47;;;9.40;99.90;8.70;100154;;;;594572;241;24062;-77
2022/06/02 03:27:17;;;;;;;4.03;3.70;;;9.70;99.90;8.80;100154;;;;594266;241;24108;-77
2022/06/02 03:30:15;;;;;;;3.93;3.63;;;9.60;99.90;9.00;100153;;;;585654;245;24268;-77
2022/06/02 03:32:58;;;;;;;4.50;4.10;;;9.80;99.90;9.10;100155;;;;586112;245;24109;-77
2022/06/02 03:35:37;;;;;;;9.07;4.23;;;9.90;99.90;9.20;100153;;;;592140;239;24194;-78
2022/06/02 03:38:41;;;;;;;3.47;3.20;;;10.00;99.90;9.30;100156;;;;596660;241;24080;-77
2022/06/02 03:41:09;;;;;;;4.73;4.23;;;10.10;99.90;9.40;100156;;;;595665;241;24088;-77
2022/06/02 03:43:49;;;;;;;4.73;4.30;;;10.20;99.90;9.50;100160;;;;595181;241;24117;-78
2022/06/02 03:46:35;;;;;;;5.23;4.33;;;10.30;99.90;9.60;100157;;;;595305;241;24113;-78
2022/06/02 03:49:29;;;;;;;4.43;4.03;;;10.50;99.90;9.80;100166;;;;595521;241;24089;-78
2022/06/02 03:52:15;;;;;;;7.10;4.03;;;10.80;99.90;10.00;100163;;;;596277;241;24161;-77
2022/06/02 03:54:45;;;;;;;3.80;3.50;;;10.70;99.90;10.10;100173;;;;591170;237;24065;-77
2022/06/02 03:57:14;;;;;;;3.80;3.50;;;11.00;99.90;10.20;100175;;;;585851;241;24066;-76
2022/06/02 03:59:57;;;;;;;3.90;3.43;;;11.00;99.90;10.40;100175;;;;594287;241;24072;-76
2022/06/02 04:02:55;;;;;;;3.33;3.03;;;11.20;99.90;10.50;100185;;;;594286;237;24080;-76
2022/06/02 04:06:06;;;;;;;2.83;2.60;;;11.30;99.90;10.60;100184;;;;595099;241;24147;-76
2022/06/02 04:08:46;;;;;;;2.80;2.60;;;11.50;99.90;10.70;100190;;;;595939;241;24076;-75
2022/06/02 04:14:51;;;;;;;7.63;2.90;;;11.60;99.90;10.90;100195;;;;595608;241;24066;-76
2022/06/02 04:17:30;;;;;;;3.93;3.10;;;11.70;99.90;10.90;100203;;;;594595;241;24081;-77
2022/06/02 04:20:35;;;;;;;4.07;3.00;;;11.70;99.90;10.90;100207;;;;594433;241;24093;-76
2022/06/02 04:23:46;;;;;;;3.60;3.27;;;11.70;99.90;10.90;100205;;;;594535;241;24078;-78
2022/06/02 04:26:51;;;;;;;3.47;3.17;;;11.60;99.90;10.90;100209;;;;594419;241;24131;-76
2022/06/02 04:29:43;;;;;;;5.80;3.27;;;11.60;99.90;10.90;100206;;;;594364;241;24074;-77
2022/06/02 04:33:00;;;;;;;6.80;3.33;;;11.70;99.90;11.20;100209;;;;580382;247;24119;-77
2022/06/02 04:36:09;;;;;;;5.80;3.80;;;11.90;99.90;12.50;100208;;;;594768;241;24056;-77
2022/06/02 04:38:52;;;;;;;3.53;3.23;;;13.00;99.90;14.40;100210;;;;594379;241;24063;-76
2022/06/02 04:41:33;;;;;;;3.43;3.13;;;14.90;99.90;16.10;100215;;;;594057;241;24066;-77
2022/06/02 04:44:41;;;;;;;5.23;2.70;;;16.60;99.90;17.40;100210;;;;581475;247;24107;-78
2022/06/02 04:48:04;;;;;;;4.60;2.87;;;18.10;99.90;18.50;100208;;;;595420;237;24079;-77
2022/06/02 04:50:41;;;;;;;3.20;2.87;;;20.30;99.90;19.50;100211;;;;592482;241;24063;-76
2022/06/02 04:53:26;;;;;;;3.60;2.70;;;20.30;99.90;20.40;100208;;;;583122;241;24062;-76
2022/06/02 04:56:07;;;;;;;2.30;2.20;;;21.20;99.90;21.30;100208;;;;592660;241;24056;-76
2022/06/02 04:58:56;;;;;;;2.73;2.50;;;22.20;99.90;22.30;100220;;;;593935;238;24056;-77
2022/06/02 05:02:00;;;;;;;2.70;2.37;;;23.30;96.90;23.10;100224;;;;591161;241;24059;-77
2022/06/02 05:04:39;;;;;;;2.47;1.87;;;24.00;93.20;24.20;100229;;;;591736;241;24102;-77
2022/06/02 05:07:10;;;;;;;2.03;1.70;;;25.10;86.40;25.00;100223;;;;590866;241;24049;-77
2022/06/02 05:10:15;;;;;;;3.43;2.27;;;25.80;79.50;25.90;100229;;;;593122;238;24053;-77
2022/06/02 05:12:49;;;;;;;1.97;1.87;;;26.70;74.00;26.10;100235;;;;583834;241;24082;-78
2022/06/02 05:15:26;;;;;;;3.30;2.23;;;27.30;67.50;25.50;100235;;;;593304;238;23141;-77
2022/06/02 05:18:30;;;;;;;3.17;1.77;;;26.70;67.20;25.30;100234;;;;570600;241;23098;-76
2022/06/02 05:21:49;;;;;;;2.10;2.00;;;26.40;67.10;24.30;100243;;;;593642;241;24139;-77
2022/06/02 05:24:38;;;;;;;5.07;1.83;;;25.60;68.50;23.20;100242;;;;593328;241;23126;-77
2022/06/02 05:27:27;;;;;;;2.20;2.00;;;24.30;71.10;23.50;100225;;;;592305;238;24055;-77
2022/06/02 05:30:08;;;;;;;4.03;2.23;;;24.20;72.90;24.90;100236;;;;582880;241;24107;-77
2022/06/02 05:32:41;;;;;;;6.60;2.47;;;27.10;68.30;26.80;100240;;;;584456;241;24046;-77
2022/06/02 05:35:34;;;;;;;2.60;2.47;;;27.00;68.10;28.00;100239;;;;592848;239;23066;-78
2022/06/02 05:38:43;;;;;;;2.70;2.50;;;28.50;63.00;28.60;100247;;;;593320;241;23091;-79
2022/06/02 05:41:35;;;;;;;3.13;2.53;;;29.30;60.60;28.80;100252;;;;591636;239;24112;-77
2022/06/02 05:44:57;;;;;;;2.70;2.50;;;29.60;58.90;28.30;100261;;;;577448;241;23059;-76
2022/06/02 05:47:47;;;;;;;2.80;2.60;;;29.30;58.10;27.70;100268;;;;595496;237;23072;-77
2022/06/02 05:50:32;;;;;;;2.80;2.55;;;28.60;58.90;28.10;100272;;;;593229;241;23082;-78
2022/06/02 05:53:28;;;;;;;3.43;3.07;;;28.80;58.20;28.00;100274;;;;593271;241;23141;-78
2022/06/02 05:56:20;;;;;;;2.70;2.50;;;28.80;58.20;27.60;100286;;;;591150;241;23059;-77
2022/06/02 05:59:18;;;;;;;2.87;2.67;;;28.50;58.10;27.00;100288;;;;593929;240;23092;-78
2022/06/02 06:01:58;;;;;;;5.17;3.20;;;27.90;59.20;27.50;100283;;;;593216;240;23304;-78
2022/06/02 06:04:59;;;;;;;3.23;2.43;;;28.20;59.80;28.90;100289;;;;584884;241;24086;-78
2022/06/02 06:07:36;;;;;;;9.10;3.00;;;29.20;58.60;31.40;100292;;;;586525;241;24108;-78
2022/06/02 06:10:21;;;;;;;4.80;2.55;;;31.60;56.40;32.90;100302;;;;594301;241;24124;-78
2022/06/02 06:12:58;;;;;;;2.40;2.20;;;33.20;54.00;34.40;100303;;;;584601;241;23096;-83
2022/06/02 06:15:50;;;;;;;2.50;2.30;;;34.70;50.80;35.40;100299;;;;593837;241;24136;-82
2022/06/02 06:18:48;;;;;;;2.75;2.55;;;35.80;48.40;36.50;100315;;;;594019;241;23149;-79
2022/06/02 06:21:34;;;;;;;3.22;1.95;;;37.10;46.60;37.20;100311;;;;592153;239;23073;-80
2022/06/02 06:24:23;;;;;;;1.80;1.52;;;38.20;43.10;37.50;100313;;;;585199;241;23125;-78
2022/06/02 06:26:58;;;;;;;2.85;1.80;;;38.30;42.10;37.50;100312;;;;584116;241;23131;-78
2022/06/02 06:29:49;;;;;;;1.95;1.85;;;38.30;42.10;38.00;100316;;;;593315;241;23107;-78
2022/06/02 06:32:32;;;;;;;1.58;1.50;;;38.60;41.50;38.60;100318;;;;593852;241;24209;-79
2022/06/02 06:35:21;;;;;;;1.92;1.80;;;39.20;41.10;39.30;100324;;;;584683;241;23148;-78
2022/06/02 06:38:16;;;;;;;1.65;1.55;;;39.80;40.60;39.70;100330;;;;584385;241;23110;-80
2022/06/02 06:41:10;;;;;;;1.77;1.67;;;40.20;40.10;39.90;100325;;;;584799;241;24120;-79
2022/06/02 06:43:50;;;;;;;1.80;1.70;;;40.50;39.10;39.80;100333;;;;578130;241;24130;-81
2022/06/02 06:46:27;;;;;;;1.75;1.58;;;40.50;37.90;39.40;100335;;;;593190;238;23178;-79
2022/06/02 06:49:02;;;;;;;1.83;1.73;;;39.90;38.10;39.20;100341;;;;593081;238;23079;-78
2022/06/02 06:51:45;;;;;;;1.67;1.58;;;39.90;38.10;39.50;100338;;;;577783;241;23071;-80
2022/06/02 06:54:16;;;;;;;1.75;1.75;;;40.00;38.10;40.70;100342;;;;592636;241;23124;-81
2022/06/02 06:56:59;;;;;;;1.58;1.48;;;40.90;37.10;40.00;100350;;;;593280;241;23127;-80
2022/06/02 06:59:58;;;;;;;1.50;1.40;;;39.20;37.70;37.80;100351;;;;593411;238;24099;-77
2022/06/02 07:02:40;;;;;;;2.00;1.90;;;39.20;37.70;36.80;100355;;;;584884;241;23066;-79
2022/06/02 07:05:08;;;;;;;1.85;1.75;;;37.90;39.50;36.90;100362;;;;591155;241;23123;-78
2022/06/02 07:08:09;;;;;;;1.65;1.52;;;37.60;39.90;35.80;100363;;;;590830;241;23090;-78
2022/06/02 07:10:58;;;;;;;1.70;1.60;;;36.90;40.20;33.60;100363;;;;594970;240;26349;-78
2022/06/02 07:13:31;;;;;;;1.52;1.42;;;35.00;41.30;31.90;100369;;;;567545;247;23122;-76
2022/06/02 07:16:11;;;;;;;1.42;1.20;;;33.20;43.60;30.40;100362;;;;564161;249;23160;-77
2022/06/02 07:19:03;;;;;;;3.53;1.48;;;31.60;45.10;28.60;100378;;;;573033;241;23149;-80
2022/06/02 07:21:37;;;;;;;1.85;1.70;;;29.90;47.50;27.10;100372;;;;590938;241;24110;-77
2022/06/02 07:24:23;;;;;;;1.93;1.70;;;28.30;49.90;25.90;100376;;;;590699;241;24147;-78
2022/06/02 07:26:54;;;;;;;1.40;1.40;;;26.90;52.00;25.20;100381;;;;583223;241;24056;-77
2022/06/02 07:30:03;;;;;;;1.43;1.17;;;25.90;53.50;24.50;100375;;;;583359;241;23098;-77
2022/06/02 07:32:47;;;;;;;1.80;1.30;;;25.20;54.30;23.90;100386;;;;591078;241;24074;-76
2022/06/02 07:35:58;;;;;;;2.00;1.00;;;24.50;55.10;23.40;100381;;;;583145;241;24137;-76
2022/06/02 07:38:55;;;;;;;1.63;1.30;;;24.00;56.70;23.10;100381;;;;573623;249;24069;-77
2022/06/02 07:41:44;;;;;;;2.20;1.50;;;23.60;58.30;22.80;100381;;;;561830;251;24130;-76
2022/06/02 07:44:28;;;;;;;1.53;1.20;;;23.20;59.10;22.70;100380;;;;577122;247;24095;-76
2022/06/02 07:47:01;;;;;;;1.20;1.10;;;23.00;60.30;22.80;100385;;;;584137;241;24057;-77
2022/06/02 07:50:01;;;;;;;0.97;0.90;;;23.20;58.80;22.80;100386;;;;582151;241;24147;-79
2022/06/02 07:53:02;;;;;;;1.63;1.30;;;23.20;58.80;22.70;100390;;;;590742;241;24101;-78
2022/06/02 07:55:38;;;;;;;1.27;1.10;;;23.10;59.20;22.80;100393;;;;591103;241;24049;-78
2022/06/02 07:58:28;;;;;;;1.03;1.03;;;23.20;59.80;23.00;100399;;;;592879;241;24062;-81
2022/06/02 08:00:58;;;;;;;1.37;1.27;;;23.30;60.20;22.90;100398;;;;585090;241;24041;-80
2022/06/02 08:03:41;;;;;;;1.80;1.70;;;23.40;60.30;23.00;100400;;;;593323;238;24105;-80
2022/06/02 08:06:42;;;;;;;1.57;1.43;;;23.40;60.20;22.80;100408;;;;585325;241;24080;-77
2022/06/02 08:09:46;;;;;;;1.53;1.30;;;23.30;60.90;22.50;100411;;;;585560;241;24040;-80
2022/06/02 08:12:29;;;;;;;1.07;1.07;;;23.00;62.00;22.50;100412;;;;590642;241;24077;-77
2022/06/02 08:15:06;;;;;;;1.23;1.10;;;23.00;62.80;23.00;100414;;;;593629;241;24077;-78
2022/06/02 08:18:02;;;;;;;1.30;1.20;;;23.90;60.90;23.60;100412;;;;583384;241;24074;-74
2022/06/02 08:20:36;;;;;;;2.00;1.30;;;23.90;60.80;25.70;100416;;;;591177;241;24049;-76
2022/06/02 08:23:12;;;;;;;1.07;1.03;;;25.70;59.40;28.30;100419;;;;594971;240;24037;-77
2022/06/02 08:25:42;;;;;;;1.60;1.30;;;28.10;55.60;30.40;100424;;;;583371;241;23082;-80
2022/06/02 08:28:29;;;;;;;2.83;0.82;;;30.50;51.70;31.10;100431;;;;590928;241;24136;-76
2022/06/02 08:31:37;;;;;;;1.00;1.00;;;31.60;48.60;31.10;100432;;;;591901;241;23067;-77
2022/06/02 08:34:29;;;;;;;1.05;0.95;;;31.80;47.30;32.20;100435;;;;570886;247;23104;-78
2022/06/02 08:37:45;;;;;;;2.00;1.10;;;32.70;46.50;32.00;100439;;;;563741;251;23137;-77
2022/06/02 08:40:56;;;;;;;2.03;1.40;;;32.80;45.70;33.90;100435;;;;593856;241;23086;-77
2022/06/02 08:43:24;;;;;;;1.08;1.08;;;34.10;45.10;35.60;100442;;;;591237;239;23175;-78
2022/06/02 08:46:38;;;;;;;1.00;1.00;;;36.00;42.00;35.90;100443;;;;579582;247;23129;-77
2022/06/02 08:50:09;;;;;;;1.10;1.10;;;36.40;41.00;38.20;100444;;;;579861;241;35027;-76
2022/06/02 08:52:48;;;;;;;0.98;0.98;;;38.40;38.90;40.00;100454;;;;591389;241;23087;-77
2022/06/02 08:55:43;;;;;;;0.95;0.95;;;40.40;36.70;41.40;100449;;;;594792;241;23099;-78
2022/06/02 08:58:56;;;;;;;1.73;1.35;;;43.00;34.20;42.50;100456;;;;590528;241;23070;-78
2022/06/02 09:02:02;;;;;;;0.90;0.90;;;42.90;34.10;43.60;100456;;;;592754;240;23057;-77
2022/06/02 09:05:01;;;;;;;1.80;1.30;;;44.30;33.90;44.20;100458;;;;592161;238;23084;-78
2022/06/02 09:07:56;;;;;;;1.10;1.10;;;45.20;33.10;45.00;100457;;;;590868;241;24091;-78
2022/06/02 09:10:30;;;;;;;1.50;1.40;;;46.10;32.00;43.40;100465;;;;580071;243;24125;-78
2022/06/02 09:13:42;;;;;;;1.08;1.08;;;44.70;32.00;43.00;100465;;;;584516;241;23066;-77
2022/06/02 09:16:29;;;;;;;1.02;1.02;;;44.60;32.00;40.20;100462;;;;593313;238;24130;-76
2022/06/02 09:19:05;;;;;;;1.17;1.17;;;40.00;34.50;37.90;100460;;;;594735;241;23097;-77
2022/06/02 09:21:42;;;;;;;1.80;1.00;;;40.00;34.50;35.70;100458;;;;592076;238;23062;-77
2022/06/02 09:24:28;;;;;;;1.35;1.25;;;37.50;36.30;34.60;100456;;;;593034;238;24149;-77
2022/06/02 09:27:48;;;;;;;2.65;1.40;;;35.80;38.40;35.90;100450;;;;593419;241;24177;-76
2022/06/02 09:30:16;;;;;;;2.33;1.08;;;36.20;40.00;38.40;100449;;;;590862;241;24162;-76
2022/06/02 09:33:43;;;;;;;1.73;1.30;;;38.50;37.20;39.90;100458;;;;593354;241;23130;-79
2022/06/02 09:36:31;;;;;;;3.37;1.40;;;40.20;35.00;41.30;100457;;;;589423;237;35121;-78
2022/06/02 09:39:27;;;;;;;1.10;1.10;;;42.40;33.60;41.90;100458;;;;594783;241;23056;-78
2022/06/02 09:42:16;;;;;;;1.42;1.10;;;42.90;33.10;41.70;100467;;;;592107;241;23103;-80
2022/06/02 09:45:11;;;;;;;1.10;1.10;;;43.00;33.10;41.00;100470;;;;558088;252;23175;-77
2022/06/02 09:47:48;;;;;;;1.67;1.00;;;40.70;33.20;38.70;100478;;;;575597;244;23071;-79
2022/06/02 09:50:28;;;;;;;1.05;0.88;;;40.70;33.20;36.20;100487;;;;578689;242;23063;-81
2022/06/02 09:53:17;;;;;;;1.30;1.20;;;38.30;34.50;33.20;100491;;;;581443;244;24134;-83
2022/06/02 09:56:00;;;;;;;1.77;1.30;;;35.40;39.80;30.20;100493;;;;585456;244;24109;-77
2022/06/02 09:58:41;;;;;;;3.85;1.10;;;32.30;43.30;28.60;100510;;;;593617;238;24213;-77
2022/06/02 10:01:37;;;;;;;2.35;1.00;;;28.60;48.40;27.50;100498;;;;582767;241;24153;-76
2022/06/02 10:04:19;;;;;;;1.00;0.90;;;28.50;48.30;26.70;100499;;;;584861;241;23069;-76
2022/06/02 10:07:24;;;;;;;1.23;1.13;;;26.80;51.20;26.20;100511;;;;592873;241;23074;-79
2022/06/02 10:10:12;;;;;;;1.47;1.17;;;26.70;51.10;25.50;100507;;;;591063;239;24333;-77
2022/06/02 10:13:07;;;;;;;1.27;1.10;;;26.00;52.70;24.80;100506;;;;591012;241;24064;-78
2022/06/02 10:16:03;;;;;;;2.80;1.37;;;25.30;53.90;24.10;100520;;;;593173;241;25122;-78
2022/06/02 10:18:58;;;;;;;1.07;1.07;;;24.60;55.70;23.20;100524;;;;590716;241;24121;-77
2022/06/02 10:21:46;;;;;;;5.40;1.27;;;23.00;59.30;22.60;100524;;;;590817;241;24095;-76
2022/06/02 10:24:59;;;;;;;1.40;1.30;;;23.00;59.30;21.80;100539;;;;582237;241;24115;-76
2022/06/02 10:27:58;;;;;;;2.13;1.20;;;22.30;62.70;20.50;100562;;;;593413;241;24093;-76
2022/06/02 10:30:46;;;;;;;0.97;0.97;;;21.20;65.90;19.30;100558;;;;590973;241;24094;-78
2022/06/02 10:33:51;;;;;;;1.43;1.33;;;20.10;69.10;18.50;100562;;;;593688;241;23074;-80
2022/06/02 10:36:40;;;;;;;0.80;0.80;;;19.20;71.60;17.90;100567;;;;591341;241;24055;-76
2022/06/02 10:39:37;;;;;;;1.33;0.90;;;18.50;73.70;17.60;100578;;;;580802;247;24137;-78
2022/06/02 10:42:33;;;;;;;1.00;1.00;;;18.10;75.20;17.50;100566;;;;584454;241;24060;-84
2022/06/02 10:45:18;;;;;;;1.03;0.93;;;17.90;77.60;17.40;100580;;;;591142;241;24053;-79
2022/06/02 10:48:07;;;;;;;1.37;1.37;;;17.80;79.70;17.20;100574;;;;593612;241;24148;-85
2022/06/02 10:51:00;;;;;;;2.43;1.60;;;17.50;85.80;17.00;100573;;;;577372;242;24153;-76
2022/06/02 10:53:51;;;;;;;2.70;1.53;;;17.40;85.80;16.90;100569;;;;578820;244;24076;-82
2022/06/02 10:56:44;;;;;;;1.40;1.30;;;17.30;95.20;16.90;100566;;;;584588;244;24091;-83
2022/06/02 10:59:36;;;;;;;1.33;1.30;;;17.20;95.20;16.80;100559;;;;583966;244;24075;-84
2022/06/02 11:02:46;;;;;;;1.60;1.30;;;17.30;99.80;16.90;100570;;;;588614;241;24144;-80
2022/06/02 11:05:38;;;;;;;1.67;1.33;;;17.30;99.90;17.30;100570;;;;592809;238;24139;-81
2022/06/02 11:08:22;;;;;;;4.30;1.37;;;18.50;99.90;18.20;100569;;;;591473;241;24071;-82
2022/06/02 11:11:39;;;;;;;2.40;1.77;;;18.50;99.90;18.90;100577;;;;585072;241;24050;-82
2022/06/02 11:14:31;;;;;;;1.23;1.23;;;19.40;99.90;19.60;100579;;;;591742;241;24116;-83
2022/06/02 11:17:51;;;;;;;2.07;1.20;;;20.10;98.60;20.10;100578;;;;591754;241;24037;-80
2022/06/02 11:20:45;;;;;;;3.23;1.40;;;20.60;96.40;20.30;100573;;;;593694;241;24063;-80
2022/06/02 11:23:47;;;;;;;1.37;1.27;;;20.90;94.20;20.30;100571;;;;593465;238;24100;-83
2022/06/02 11:26:41;;;;;;;1.30;1.30;;;20.90;92.80;20.30;100570;;;;584649;241;24062;-84
2022/06/02 11:29:28;;;;;;;2.13;1.63;;;20.90;91.80;20.70;100582;;;;589536;241;24054;-83
2022/06/02 11:32:11;;;;;;;1.23;1.23;;;21.20;92.50;21.10;100581;;;;579176;241;24097;-79
2022/06/02 11:34:50;;;;;;;1.40;1.40;;;21.60;91.90;21.50;100587;;;;582811;241;24069;-83
2022/06/02 11:37:39;;;;;;;1.50;1.40;;;22.00;91.20;21.70;100575;;;;592460;241;25155;-80
2022/06/02 11:40:22;;;;;;;1.47;1.00;;;22.30;90.20;21.80;100586;;;;590549;241;23080;-80
2022/06/02 11:43:20;;;;;;;1.10;1.10;;;22.40;85.80;21.70;100582;;;;592691;241;24087;-85
2022/06/02 11:46:15;;;;;;;3.03;1.40;;;22.30;85.20;21.60;100578;;;;582617;241;24089;-81
2022/06/02 11:49:19;;;;;;;1.10;1.10;;;22.20;84.80;21.50;100589;;;;592970;238;23277;-80
2022/06/02 11:52:02;;;;;;;4.17;2.00;;;22.10;85.10;21.00;100596;;;;590428;241;23086;-79
2022/06/02 11:55:00;;;;;;;1.70;1.60;;;21.70;83.70;20.60;100599;;;;580340;241;24069;-83
2022/06/02 11:57:50;;;;;;;1.40;1.40;;;21.30;84.30;20.40;100590;;;;591540;241;23069;-83
2022/06/02 12:00:46;;;;;;;1.37;1.37;;;21.00;86.00;20.20;100594;;;;580166;241;24086;-77
2022/06/02 12:03:40;;;;;;;1.63;1.40;;;20.80;87.30;20.00;100595;;;;580567;243;23100;-80
2022/06/02 12:06:57;;;;;;;1.10;1.10;;;20.60;87.60;19.70;100587;;;;585200;241;24102;-76
2022/06/02 12:09:39;;;;;;;0.87;0.87;;;20.30;86.50;19.40;100600;;;;591123;241;24074;-82
2022/06/02 12:12:28;;;;;;;3.10;0.80;;;20.00;88.10;19.60;100588;;;;593524;241;24060;-79
2022/06/02 12:15:15;;;;;;;0.93;0.83;;;20.10;87.60;19.90;100587;;;;592665;238;24045;-78
2022/06/02 12:18:16;;;;;;;0.63;0.63;;;20.30;85.50;19.90;100593;;;;592864;241;23132;-77
2022/06/02 12:21:14;;;;;;;0.60;0.60;;;20.40;83.30;19.80;100600;;;;590967;241;24111;-78
2022/06/02 12:24:04;;;;;;;1.70;0.60;;;20.40;80.30;19.80;100606;;;;576585;241;24110;-78
2022/06/02 12:27:02;;;;;;;1.00;0.80;;;20.40;79.40;19.60;100605;;;;584513;241;24145;-79
2022/06/02 12:30:04;;;;;;;2.13;0.80;;;20.20;80.50;19.60;100603;;;;580549;247;24165;-77
2022/06/02 12:33:02;;;;;;;2.33;0.97;;;20.20;80.50;19.60;100599;;;;584496;241;24124;-79
2022/06/02 12:36:06;;;;;;;0.93;0.93;;;20.10;82.00;19.50;100603;;;;592566;241;24071;-79
2022/06/02 12:38:49;;;;;;;1.00;1.00;;;20.10;82.50;19.50;100595;;;;583886;241;24086;-77
2022/06/02 12:41:51;;;;;;;1.63;1.37;;;20.20;83.40;19.60;100611;;;;583812;241;24087;-76
2022/06/02 12:44:37;;;;;;;1.17;1.03;;;20.10;83.20;19.70;100601;;;;592654;241;24047;-77
2022/06/02 12:47:38;;;;;;;0.93;0.93;;;20.10;83.20;19.80;100607;;;;582705;241;25167;-78
2022/06/02 12:50:18;;;;;;;4.23;1.60;;;20.30;83.30;20.00;100608;;;;590714;239;24090;-77
2022/06/02 12:53:28;;;;;;;2.70;1.40;;;20.40;83.60;20.20;100619;;;;586110;241;24144;-77
2022/06/02 12:56:15;;;;;;;1.57;1.50;;;20.60;83.50;20.40;100617;;;;581970;241;24097;-78
2022/06/02 12:59:13;;;;;;;1.60;1.50;;;20.90;82.70;20.50;100611;;;;590290;241;24031;-77